createdAt,value
2023-01-21T00:00:45.763Z,39.27
2023-01-21T00:03:13.130Z,40.40
2023-01-21T00:05:39.970Z,42.17
2023-01-21T00:08:06.669Z,39.80
2023-01-21T00:10:33.930Z,38.53
2023-01-21T00:13:00.783Z,40.13
2023-01-21T00:15:27.567Z,37.93
2023-01-21T00:17:54.636Z,41.57
2023-01-21T00:20:21.836Z,36.97
2023-01-21T00:22:48.647Z,39.23
2023-01-21T00:25:15.411Z,40.00
2023-01-21T00:27:42.129Z,36.63
2023-01-21T00:30:10.740Z,34.87
2023-01-21T00:32:37.550Z,32.77
2023-01-21T00:35:06.000Z,32.47
2023-01-21T00:37:32.683Z,37.37
2023-01-21T00:39:59.345Z,33.27
2023-01-21T00:42:27.916Z,30.57
2023-01-21T00:44:57.363Z,31.30
2023-01-21T00:47:24.820Z,34.93
2023-01-21T00:49:51.556Z,35.87
2023-01-21T00:52:18.318Z,29.47
2023-01-21T00:54:45.067Z,32.13
2023-01-21T00:57:13.625Z,30.93
2023-01-21T00:59:40.527Z,35.30
2023-01-21T01:02:07.804Z,34.90
2023-01-21T01:04:34.595Z,33.47
2023-01-21T01:07:02.546Z,34.90
2023-01-21T01:09:29.457Z,32.80
2023-01-21T01:11:56.314Z,34.43
2023-01-21T01:14:23.134Z,32.80
2023-01-21T01:16:50.390Z,32.93
2023-01-21T01:19:17.207Z,30.73
2023-01-21T01:21:44.019Z,33.07
2023-01-21T01:24:10.750Z,30.53
2023-01-21T01:26:37.484Z,33.30
2023-01-21T01:29:05.250Z,32.53
2023-01-21T01:31:32.692Z,32.83
2023-01-21T01:34:00.300Z,37.13
2023-01-21T01:36:27.196Z,32.27
2023-01-21T01:38:56.507Z,34.50
2023-01-21T01:41:29.407Z,33.30
2023-01-21T01:44:04.538Z,36.37
2023-01-21T01:46:36.547Z,32.73
2023-01-21T01:49:17.219Z,36.10
2023-01-21T01:51:52.547Z,31.47
2023-01-21T01:54:26.711Z,39.47
2023-01-21T01:56:57.125Z,34.97
2023-01-21T01:59:24.694Z,44.23
2023-01-21T02:01:51.738Z,39.90
2023-01-21T02:04:23.128Z,39.63
2023-01-21T02:06:52.261Z,39.67
2023-01-21T02:09:19.229Z,38.57
2023-01-21T02:11:46.084Z,41.27
2023-01-21T02:14:12.948Z,41.87
2023-01-21T02:17:07.428Z,44.17
2023-01-21T02:20:14.077Z,45.07
2023-01-21T02:22:52.555Z,46.23
2023-01-21T02:25:30.638Z,43.70
2023-01-21T02:28:15.621Z,42.77
2023-01-21T02:31:08.195Z,40.53
2023-01-21T02:33:49.752Z,40.17
2023-01-21T02:36:31.758Z,43.90
2023-01-21T02:39:06.469Z,41.27
2023-01-21T02:41:46.381Z,39.47
2023-01-21T02:44:18.793Z,40.30
2023-01-21T02:47:03.408Z,36.93
2023-01-21T02:49:37.381Z,36.90
2023-01-21T02:52:04.177Z,39.03
2023-01-21T02:54:39.842Z,42.30
2023-01-21T02:57:15.910Z,44.67
2023-01-21T02:59:47.728Z,44.93
2023-01-21T03:02:41.981Z,41.67
2023-01-21T03:05:16.864Z,41.00
2023-01-21T03:08:04.784Z,38.67
2023-01-21T03:10:42.169Z,34.03
2023-01-21T03:13:53.361Z,38.63
2023-01-21T03:16:59.214Z,38.63
2023-01-21T03:19:34.443Z,38.90
2023-01-21T03:22:07.016Z,38.53
2023-01-21T03:24:36.131Z,40.23
2023-01-21T03:27:05.249Z,37.77
2023-01-21T03:29:33.846Z,43.33
2023-01-21T03:32:06.359Z,41.07
2023-01-21T03:34:37.230Z,35.87
2023-01-21T03:37:40.826Z,36.17
2023-01-21T03:40:20.001Z,36.43
2023-01-21T03:42:50.701Z,41.40
2023-01-21T03:45:32.663Z,36.37
2023-01-21T03:48:04.169Z,35.87
2023-01-21T03:50:40.278Z,36.83
2023-01-21T03:53:07.466Z,32.60
2023-01-21T03:55:36.367Z,32.37
2023-01-21T03:58:03.213Z,36.57
2023-01-21T04:00:29.929Z,35.50
2023-01-21T04:02:56.654Z,31.93
2023-01-21T04:05:23.492Z,41.37
2023-01-21T04:07:50.233Z,35.20
2023-01-21T04:10:17.718Z,35.20
2023-01-21T04:12:44.583Z,37.87
2023-01-21T04:15:11.809Z,36.17
2023-01-21T04:17:38.573Z,36.90
2023-01-21T04:20:06.474Z,39.90
2023-01-21T04:22:33.134Z,34.03
2023-01-21T04:24:59.788Z,38.67
2023-01-21T04:27:26.476Z,37.63
2023-01-21T04:29:53.165Z,31.60
2023-01-21T04:32:19.913Z,32.13
2023-01-21T04:34:46.605Z,33.73
2023-01-21T04:37:13.348Z,36.03
2023-01-21T04:39:40.059Z,33.07
2023-01-21T04:42:06.831Z,40.13
2023-01-21T04:44:33.566Z,35.33
2023-01-21T04:47:00.275Z,39.10
2023-01-21T04:49:26.958Z,37.40
2023-01-21T04:51:53.716Z,33.63
2023-01-21T04:54:20.379Z,39.67
2023-01-21T04:56:47.081Z,45.83
2023-01-21T04:59:13.871Z,37.03
2023-01-21T05:01:40.755Z,41.10
2023-01-21T05:04:07.436Z,47.10
2023-01-21T05:06:34.118Z,47.23
2023-01-21T05:09:00.791Z,40.87
2023-01-21T05:11:27.564Z,38.63
2023-01-21T05:13:54.236Z,35.70
2023-01-21T05:16:20.977Z,31.83
2023-01-21T05:18:48.720Z,31.00
2023-01-21T05:21:15.625Z,29.83
2023-01-21T05:23:42.553Z,29.63
2023-01-21T05:26:09.340Z,30.40
2023-01-21T05:28:36.009Z,29.77
2023-01-21T05:31:03.715Z,33.13
2023-01-21T05:33:34.673Z,26.37
2023-01-21T05:36:02.627Z,29.33
2023-01-21T05:38:29.581Z,26.17
2023-01-21T05:41:00.909Z,28.57
2023-01-21T05:43:28.020Z,29.93
2023-01-21T05:45:55.067Z,30.80
2023-01-21T05:48:25.107Z,31.43
2023-01-21T05:50:51.889Z,27.83
2023-01-21T05:53:18.771Z,29.17
2023-01-21T05:55:45.492Z,27.17
2023-01-21T05:58:12.463Z,26.17
2023-01-21T06:00:39.198Z,25.30
2023-01-21T06:03:05.861Z,27.10
2023-01-21T06:05:32.527Z,31.50
2023-01-21T06:07:59.167Z,27.27
2023-01-21T06:10:25.947Z,26.70
2023-01-21T06:12:52.808Z,32.07
2023-01-21T06:15:19.868Z,27.00
2023-01-21T06:17:47.592Z,27.40
2023-01-21T06:20:14.684Z,24.67
2023-01-21T06:22:41.448Z,26.90
2023-01-21T06:25:08.518Z,22.67
2023-01-21T06:27:37.282Z,23.57
2023-01-21T06:30:06.322Z,24.53
2023-01-21T06:32:33.991Z,27.63
2023-01-21T06:35:00.696Z,30.83
2023-01-21T06:37:27.407Z,25.33
2023-01-21T06:39:54.215Z,25.37
2023-01-21T06:42:21.080Z,26.47
2023-01-21T06:44:48.212Z,24.00
2023-01-21T06:47:15.142Z,26.70
2023-01-21T06:49:42.021Z,27.47
2023-01-21T06:52:09.122Z,26.03
2023-01-21T06:54:35.990Z,25.70
2023-01-21T06:57:02.684Z,29.23
2023-01-21T06:59:29.480Z,28.27
2023-01-21T07:01:59.004Z,28.20
2023-01-21T07:04:26.596Z,28.50
2023-01-21T07:06:53.813Z,28.53
2023-01-21T07:09:20.815Z,27.07
2023-01-21T07:11:47.999Z,29.90
2023-01-21T07:14:14.788Z,30.07
2023-01-21T07:16:47.629Z,28.13
2023-01-21T07:19:14.384Z,29.93
2023-01-21T07:21:41.563Z,31.63
2023-01-21T07:24:09.359Z,33.37
2023-01-21T07:26:38.116Z,28.37
2023-01-21T07:29:06.580Z,29.73
2023-01-21T07:31:34.048Z,28.80
2023-01-21T07:34:01.124Z,30.70
2023-01-21T07:36:28.181Z,30.20
2023-01-21T07:38:54.920Z,29.30
2023-01-21T07:41:21.684Z,27.23
2023-01-21T07:43:49.153Z,25.90
2023-01-21T07:46:24.748Z,25.73
2023-01-21T07:48:51.936Z,26.70
2023-01-21T07:51:19.561Z,26.33
2023-01-21T07:53:46.587Z,29.93
2023-01-21T07:56:13.540Z,28.20
2023-01-21T07:58:40.843Z,24.37
2023-01-21T08:01:08.656Z,23.23
2023-01-21T08:03:36.953Z,23.37
2023-01-21T08:06:07.866Z,23.87
2023-01-21T08:08:35.089Z,21.73
2023-01-21T08:11:01.800Z,23.27
2023-01-21T08:13:28.492Z,23.43
2023-01-21T08:15:57.050Z,22.30
2023-01-21T08:18:24.848Z,22.33
2023-01-21T08:20:58.814Z,24.23
2023-01-21T08:23:26.729Z,49.37
2023-01-21T08:25:54.044Z,40.03
2023-01-21T08:28:21.379Z,29.80
2023-01-21T08:30:48.283Z,27.23
2023-01-21T08:33:16.699Z,24.33
2023-01-21T08:35:43.468Z,26.03
2023-01-21T08:38:10.277Z,24.57
2023-01-21T08:40:37.013Z,25.13
2023-01-21T08:43:04.988Z,21.13
2023-01-21T08:45:31.922Z,20.83
2023-01-21T08:47:58.656Z,21.33
2023-01-21T08:50:25.436Z,22.80
2023-01-21T08:52:56.012Z,20.43
2023-01-21T08:55:27.374Z,18.57
2023-01-21T08:57:55.808Z,23.50
2023-01-21T09:00:23.916Z,21.47
2023-01-21T09:02:51.804Z,26.87
2023-01-21T09:05:19.155Z,23.33
2023-01-21T09:07:46.283Z,22.17
2023-01-21T09:10:33.434Z,20.93
2023-01-21T09:13:08.035Z,20.70
2023-01-21T09:15:39.151Z,18.33
2023-01-21T09:18:06.131Z,22.40
2023-01-21T09:20:32.913Z,21.03
2023-01-21T09:22:59.778Z,19.47
2023-01-21T09:25:26.577Z,22.40
2023-01-21T09:27:53.387Z,23.33
2023-01-21T09:30:20.158Z,22.47
2023-01-21T09:32:46.954Z,21.37
2023-01-21T09:35:13.766Z,25.30
2023-01-21T09:37:40.471Z,25.33
2023-01-21T09:40:10.217Z,23.80
2023-01-21T09:42:37.007Z,26.03
2023-01-21T09:45:04.868Z,22.47
2023-01-21T09:47:39.642Z,21.63
2023-01-21T09:50:19.390Z,20.73
2023-01-21T09:52:47.751Z,23.80
2023-01-21T09:55:36.145Z,23.57
2023-01-21T09:58:47.314Z,23.20
2023-01-21T10:01:21.517Z,20.40
2023-01-21T10:03:54.577Z,21.93
2023-01-21T10:06:36.752Z,21.30
2023-01-21T10:09:25.556Z,19.10
2023-01-21T10:12:10.186Z,21.03
2023-01-21T10:15:12.780Z,19.00
2023-01-21T10:18:01.962Z,15.97
2023-01-21T10:20:30.924Z,16.03
2023-01-21T10:23:14.331Z,16.10
2023-01-21T10:25:41.521Z,14.57
2023-01-21T10:28:19.607Z,13.30
2023-01-21T10:31:09.236Z,11.83
2023-01-21T10:33:36.050Z,13.07
2023-01-21T10:36:17.976Z,11.33
2023-01-21T10:39:04.548Z,14.23
2023-01-21T10:41:45.400Z,14.43
2023-01-21T10:44:26.774Z,13.30
2023-01-21T10:46:59.720Z,12.17
2023-01-21T10:49:38.908Z,12.50
2023-01-21T10:52:45.357Z,11.33
2023-01-21T10:55:26.778Z,11.50
2023-01-21T10:58:14.519Z,12.20
2023-01-21T11:00:44.603Z,10.70
2023-01-21T11:03:23.474Z,10.60
2023-01-21T11:05:50.256Z,9.47
2023-01-21T11:08:22.545Z,8.87
2023-01-21T11:10:53.342Z,9.77
2023-01-21T11:13:20.023Z,10.67
2023-01-21T11:15:56.577Z,10.43
2023-01-21T11:18:29.425Z,10.30
2023-01-21T11:20:59.238Z,9.93
2023-01-21T11:23:32.352Z,10.40
2023-01-21T11:26:10.162Z,11.03
2023-01-21T11:28:37.099Z,9.00
2023-01-21T11:31:10.045Z,8.90
2023-01-21T11:33:38.157Z,9.07
2023-01-21T11:36:14.597Z,9.53
2023-01-21T11:38:42.151Z,8.73
2023-01-21T11:41:11.836Z,9.33
2023-01-21T11:43:48.502Z,9.33
2023-01-21T11:46:26.003Z,9.17
2023-01-21T11:49:05.622Z,9.20
2023-01-21T11:51:32.862Z,11.47
2023-01-21T11:54:18.277Z,8.40
2023-01-21T11:56:58.228Z,10.67
2023-01-21T11:59:35.524Z,9.10
2023-01-21T12:02:29.280Z,8.43
2023-01-21T12:05:07.004Z,10.03
2023-01-21T12:07:41.204Z,11.63
2023-01-21T12:10:26.069Z,11.70
2023-01-21T12:13:16.745Z,10.40
2023-01-21T12:16:14.918Z,9.43
2023-01-21T12:18:50.969Z,9.47
2023-01-21T12:21:51.192Z,11.07
2023-01-21T12:24:34.573Z,11.20
2023-01-21T12:27:19.510Z,9.87
2023-01-21T12:30:19.626Z,12.23
2023-01-21T12:32:51.219Z,10.50
2023-01-21T12:35:28.512Z,9.80
2023-01-21T12:38:06.820Z,11.27
2023-01-21T12:40:39.319Z,9.17
2023-01-21T12:43:16.778Z,10.63
2023-01-21T12:45:54.492Z,11.37
2023-01-21T12:48:36.086Z,10.63
2023-01-21T12:51:09.978Z,10.00
2023-01-21T12:53:46.196Z,9.30
2023-01-21T12:56:39.709Z,10.97
2023-01-21T12:59:16.797Z,12.23
2023-01-21T13:01:46.623Z,9.57
2023-01-21T13:04:32.130Z,10.57
2023-01-21T13:07:02.385Z,9.63
2023-01-21T13:09:46.389Z,9.57
2023-01-21T13:12:21.489Z,11.53
2023-01-21T13:15:09.438Z,8.97
2023-01-21T13:17:40.084Z,10.93
2023-01-21T13:20:20.810Z,8.97
2023-01-21T13:23:06.121Z,8.37
2023-01-21T13:26:01.531Z,9.60
2023-01-21T13:28:39.671Z,9.73
2023-01-21T13:31:18.724Z,10.63
2023-01-21T13:34:02.671Z,8.40
2023-01-21T13:37:06.682Z,9.47
2023-01-21T13:40:11.957Z,9.70
2023-01-21T13:42:50.631Z,8.63
2023-01-21T13:45:23.429Z,8.57
2023-01-21T13:48:11.723Z,8.87
2023-01-21T13:51:05.724Z,8.77
2023-01-21T13:54:11.656Z,9.47
2023-01-21T13:56:44.515Z,8.97
2023-01-21T13:59:27.748Z,8.63
2023-01-21T14:02:00.575Z,8.10
2023-01-21T14:04:45.476Z,9.77
2023-01-21T14:07:17.682Z,10.23
2023-01-21T14:09:53.714Z,8.97
2023-01-21T14:13:01.897Z,8.53
2023-01-21T14:16:07.196Z,11.30
2023-01-21T14:18:55.488Z,9.77
2023-01-21T14:21:40.450Z,9.30
2023-01-21T14:24:27.830Z,9.57
2023-01-21T14:27:07.158Z,9.57
2023-01-21T14:29:46.527Z,11.30
2023-01-21T14:32:42.168Z,10.17
2023-01-21T14:35:19.938Z,9.70
2023-01-21T14:38:18.573Z,11.47
2023-01-21T14:41:02.532Z,9.77
2023-01-21T14:43:32.116Z,8.83
2023-01-21T14:46:00.558Z,10.90
2023-01-21T14:48:42.060Z,11.23
2023-01-21T14:51:13.212Z,12.40
2023-01-21T14:53:51.408Z,9.97
2023-01-21T14:56:33.695Z,11.60
2023-01-21T14:59:04.837Z,10.80
2023-01-21T15:01:38.050Z,10.70
2023-01-21T15:04:21.669Z,12.17
2023-01-21T15:06:53.096Z,10.93
2023-01-21T15:09:27.171Z,11.57
2023-01-21T15:12:06.413Z,10.87
2023-01-21T15:14:39.433Z,10.03
2023-01-21T15:17:46.055Z,12.50
2023-01-21T15:20:35.698Z,10.13
2023-01-21T15:23:24.391Z,10.73
2023-01-21T15:26:11.096Z,11.37
2023-01-21T15:28:57.710Z,11.40
2023-01-21T15:31:24.573Z,9.43
2023-01-21T15:33:58.864Z,13.27
2023-01-21T15:36:30.966Z,11.27
2023-01-21T15:39:22.843Z,12.33
2023-01-21T15:42:09.553Z,13.23
2023-01-21T15:45:23.687Z,10.07
2023-01-21T15:48:19.936Z,12.97
2023-01-21T15:51:01.706Z,11.67
2023-01-21T15:54:00.175Z,10.80
2023-01-21T15:56:51.086Z,13.23
2023-01-21T15:59:35.740Z,10.63
2023-01-21T16:02:42.087Z,11.73
2023-01-21T16:05:11.475Z,10.60
2023-01-21T16:08:14.361Z,10.23
2023-01-21T16:10:52.674Z,12.87
2023-01-21T16:13:38.206Z,12.33
2023-01-21T16:16:32.295Z,9.67
2023-01-21T16:19:03.316Z,12.87
2023-01-21T16:21:36.548Z,13.60
2023-01-21T16:24:11.280Z,10.63
2023-01-21T16:26:38.008Z,13.73
2023-01-21T16:29:11.185Z,12.80
2023-01-21T16:32:00.837Z,14.60
2023-01-21T16:34:36.570Z,12.30
2023-01-21T16:37:06.563Z,13.60
2023-01-21T16:39:33.604Z,12.60
2023-01-21T16:42:05.753Z,13.70
2023-01-21T16:44:34.101Z,12.47
2023-01-21T16:47:02.054Z,14.87
2023-01-21T16:49:29.112Z,11.40
2023-01-21T16:52:02.032Z,13.93
2023-01-21T16:54:30.986Z,12.37
2023-01-21T16:57:01.849Z,12.43
2023-01-21T16:59:44.518Z,13.27
2023-01-21T17:02:28.505Z,11.83
2023-01-21T17:04:57.704Z,14.23
2023-01-21T17:07:46.749Z,14.43
2023-01-21T17:10:24.545Z,11.53
2023-01-21T17:12:58.861Z,11.73
2023-01-21T17:15:30.576Z,13.90
2023-01-21T17:18:00.435Z,13.87
2023-01-21T17:20:38.456Z,11.73
2023-01-21T17:23:20.901Z,10.77
2023-01-21T17:25:58.697Z,11.50
2023-01-21T17:29:03.223Z,11.83
2023-01-21T17:31:34.793Z,11.77
2023-01-21T17:34:17.739Z,12.77
2023-01-21T17:36:50.463Z,14.60
2023-01-21T17:39:47.388Z,15.27
2023-01-21T17:42:16.607Z,22.77
2023-01-21T17:44:49.161Z,17.43
2023-01-21T17:47:26.477Z,23.43
2023-01-21T17:50:34.335Z,28.43
2023-01-21T17:53:02.954Z,37.50
2023-01-21T17:55:31.538Z,26.17
2023-01-21T17:58:00.826Z,18.43
2023-01-21T18:00:27.601Z,15.07
2023-01-21T18:02:54.345Z,12.10
2023-01-21T18:05:21.235Z,11.13
2023-01-21T18:07:48.164Z,14.70
2023-01-21T18:10:24.518Z,13.40
2023-01-21T18:12:51.479Z,12.77
2023-01-21T18:15:20.510Z,12.67
2023-01-21T18:17:54.087Z,14.07
2023-01-21T18:20:25.141Z,11.80
2023-01-21T18:22:52.925Z,13.63
2023-01-21T18:25:20.246Z,15.60
2023-01-21T18:27:54.391Z,14.83
2023-01-21T18:30:25.150Z,15.37
2023-01-21T18:32:52.147Z,14.57
2023-01-21T18:35:21.682Z,13.10
2023-01-21T18:37:48.810Z,14.87
2023-01-21T18:40:18.346Z,11.97
2023-01-21T18:42:46.470Z,14.20
2023-01-21T18:45:16.474Z,13.67
2023-01-21T18:47:44.162Z,13.80
2023-01-21T18:50:22.700Z,14.37
2023-01-21T18:52:49.826Z,16.80
2023-01-21T18:55:18.737Z,13.70
2023-01-21T18:57:48.276Z,14.70
2023-01-21T19:00:18.513Z,13.20
2023-01-21T19:02:45.359Z,16.00
2023-01-21T19:05:12.425Z,15.60
2023-01-21T19:07:39.180Z,13.27
2023-01-21T19:10:06.722Z,13.80
2023-01-21T19:12:33.428Z,12.27
2023-01-21T19:15:01.867Z,13.87
2023-01-21T19:17:30.813Z,13.27
2023-01-21T19:19:57.706Z,15.13
2023-01-21T19:22:24.449Z,20.37
2023-01-21T19:24:51.239Z,18.60
2023-01-21T19:27:26.482Z,19.10
2023-01-21T19:29:53.200Z,21.77
2023-01-21T19:32:19.990Z,16.53
2023-01-21T19:34:46.709Z,16.87
2023-01-21T19:37:19.886Z,27.70
2023-01-21T19:39:46.696Z,20.00
2023-01-21T19:42:15.115Z,17.07
2023-01-21T19:44:42.564Z,18.77
2023-01-21T19:47:21.372Z,17.03
2023-01-21T19:49:48.076Z,20.47
2023-01-21T19:52:15.060Z,15.57
2023-01-21T19:54:41.736Z,18.13
2023-01-21T19:57:14.394Z,19.90
2023-01-21T19:59:42.672Z,20.27
2023-01-21T20:02:11.234Z,26.83
2023-01-21T20:04:37.953Z,25.77
2023-01-21T20:07:05.410Z,17.67
2023-01-21T20:09:32.676Z,20.40
2023-01-21T20:12:02.053Z,18.00
2023-01-21T20:14:30.879Z,20.47
2023-01-21T20:16:57.590Z,18.40
2023-01-21T20:19:24.616Z,19.63
2023-01-21T20:22:01.274Z,19.20
2023-01-21T20:24:30.383Z,23.13
2023-01-21T20:26:58.374Z,19.07
2023-01-21T20:29:26.887Z,19.30
2023-01-21T20:31:54.470Z,18.13
2023-01-21T20:34:21.327Z,18.80
2023-01-21T20:36:49.677Z,14.47
2023-01-21T20:39:16.478Z,18.60
2023-01-21T20:41:43.503Z,18.50
2023-01-21T20:44:10.562Z,19.17
2023-01-21T20:46:38.634Z,15.60
2023-01-21T20:49:05.485Z,19.37
2023-01-21T20:51:32.203Z,29.20
2023-01-21T20:53:58.973Z,22.23
2023-01-21T20:56:28.981Z,20.03
2023-01-21T20:58:55.920Z,19.57
2023-01-21T21:01:24.797Z,21.80
2023-01-21T21:03:52.266Z,18.27
2023-01-21T21:06:22.067Z,21.70
2023-01-21T21:08:49.587Z,19.90
2023-01-21T21:11:17.407Z,18.23
2023-01-21T21:13:46.915Z,20.13
2023-01-21T21:16:27.756Z,23.23
2023-01-21T21:18:56.160Z,24.00
2023-01-21T21:21:24.001Z,18.07
2023-01-21T21:23:52.527Z,21.47
2023-01-21T21:26:24.491Z,22.60
2023-01-21T21:28:55.737Z,26.50
2023-01-21T21:31:22.994Z,30.30
2023-01-21T21:33:50.186Z,56.83
2023-01-21T21:36:19.825Z,47.07
2023-01-21T21:38:47.448Z,97.30
2023-01-21T21:41:37.867Z,39.80
2023-01-21T21:44:06.227Z,37.83
2023-01-21T21:46:51.733Z,23.33
2023-01-21T21:49:18.790Z,16.30
2023-01-21T21:51:45.932Z,15.50
2023-01-21T21:54:15.187Z,15.00
2023-01-21T21:56:43.185Z,15.70
2023-01-21T21:59:11.971Z,14.13
2023-01-21T22:01:40.447Z,15.60
2023-01-21T22:04:07.303Z,13.37
2023-01-21T22:06:36.279Z,15.30
2023-01-21T22:09:03.375Z,13.63
2023-01-21T22:11:30.354Z,15.47
2023-01-21T22:13:57.727Z,14.87
2023-01-21T22:16:28.850Z,14.90
2023-01-21T22:18:57.458Z,13.53
2023-01-21T22:21:32.863Z,16.17
2023-01-21T22:24:01.341Z,12.47
2023-01-21T22:26:28.713Z,13.10
2023-01-21T22:28:55.715Z,12.17
2023-01-21T22:31:24.767Z,13.63
2023-01-21T22:33:51.569Z,12.20
2023-01-21T22:36:20.478Z,13.67
2023-01-21T22:38:47.544Z,12.63
2023-01-21T22:41:16.514Z,12.83
2023-01-21T22:43:44.897Z,13.40
2023-01-21T22:46:13.490Z,11.97
2023-01-21T22:48:41.562Z,13.10
2023-01-21T22:51:11.194Z,13.33
2023-01-21T22:53:40.127Z,13.43
2023-01-21T22:56:07.336Z,14.83
2023-01-21T22:58:34.745Z,13.93
2023-01-21T23:01:05.064Z,13.00
2023-01-21T23:03:31.854Z,13.33
2023-01-21T23:06:08.527Z,14.63
2023-01-21T23:08:38.139Z,12.53
2023-01-21T23:11:07.339Z,11.87
2023-01-21T23:13:34.904Z,11.50
2023-01-21T23:16:01.898Z,10.97
2023-01-21T23:18:29.457Z,9.77
2023-01-21T23:20:56.447Z,11.30
2023-01-21T23:23:24.759Z,12.00
2023-01-21T23:25:51.541Z,9.60
2023-01-21T23:28:18.286Z,9.33
2023-01-21T23:30:45.150Z,10.30
2023-01-21T23:33:12.196Z,9.60
2023-01-21T23:35:39.235Z,9.00
2023-01-21T23:38:05.920Z,9.53
2023-01-21T23:40:32.734Z,10.40
2023-01-21T23:42:59.451Z,10.73
2023-01-21T23:45:26.609Z,9.40
2023-01-21T23:47:54.473Z,10.13
2023-01-21T23:50:21.269Z,8.17
2023-01-21T23:52:48.040Z,9.67
2023-01-21T23:55:14.721Z,7.33
2023-01-21T23:57:41.596Z,10.37
